createdAt,value
2022-09-26T00:04:08.888Z,1.93
2022-09-26T00:09:11.735Z,2.20
2022-09-26T00:14:17.568Z,2.20
2022-09-26T00:19:19.915Z,1.77
2022-09-26T00:24:22.061Z,1.63
2022-09-26T00:29:25.423Z,1.90
2022-09-26T00:34:27.516Z,2.00
2022-09-26T00:39:29.600Z,1.97
2022-09-26T00:44:44.726Z,1.67
2022-09-26T00:49:48.593Z,2.43
2022-09-26T00:54:54.042Z,2.00
2022-09-26T01:00:01.618Z,2.30
2022-09-26T01:05:05.808Z,2.03
2022-09-26T01:10:09.083Z,2.20
2022-09-26T01:15:12.705Z,1.93
2022-09-26T01:20:26.700Z,2.00
2022-09-26T01:25:42.167Z,2.50
2022-09-26T01:30:50.816Z,2.07
2022-09-26T01:36:23.824Z,2.23
2022-09-26T01:41:38.774Z,2.10
2022-09-26T01:46:48.533Z,2.00
2022-09-26T01:51:58.884Z,1.97
2022-09-26T01:57:03.825Z,2.03
2022-09-26T02:02:13.699Z,2.17
2022-09-26T02:07:18.749Z,1.83
2022-09-26T02:12:26.181Z,2.43
2022-09-26T02:17:33.462Z,1.83
2022-09-26T02:22:35.317Z,2.40
2022-09-26T02:27:38.047Z,2.13
2022-09-26T02:32:41.480Z,2.90
2022-09-26T02:37:43.468Z,2.23
2022-09-26T02:42:53.811Z,2.83
2022-09-26T02:48:17.406Z,2.53
2022-09-26T02:53:34.478Z,1.80
2022-09-26T02:58:43.491Z,2.30
2022-09-26T03:03:53.139Z,2.13
2022-09-26T03:08:57.249Z,2.23
2022-09-26T03:14:00.439Z,2.00
2022-09-26T03:19:09.986Z,2.30
2022-09-26T03:24:12.480Z,2.03
2022-09-26T03:29:14.313Z,2.00
2022-09-26T03:34:18.014Z,2.17
2022-09-26T03:39:20.152Z,2.10
2022-09-26T03:44:22.408Z,1.97
2022-09-26T03:49:25.848Z,2.03
2022-09-26T03:54:27.890Z,1.63
2022-09-26T03:59:29.825Z,2.00
2022-09-26T04:04:32.838Z,2.30
2022-09-26T04:09:35.327Z,1.93
2022-09-26T04:14:37.288Z,2.17
2022-09-26T04:19:40.408Z,1.70
2022-09-26T04:24:42.502Z,2.03
2022-09-26T04:29:44.641Z,1.90
2022-09-26T04:34:47.685Z,2.30
2022-09-26T04:39:49.745Z,2.10
2022-09-26T04:44:51.404Z,2.00
2022-09-26T04:49:54.828Z,2.43
2022-09-26T04:54:56.845Z,2.83
2022-09-26T04:59:58.830Z,2.70
2022-09-26T05:05:01.827Z,2.93
2022-09-26T05:10:03.562Z,2.67
2022-09-26T05:15:07.438Z,2.57
2022-09-26T05:20:10.906Z,2.20
2022-09-26T05:25:12.938Z,2.87
2022-09-26T05:30:15.407Z,2.93
2022-09-26T05:35:18.384Z,2.90
2022-09-26T05:40:21.082Z,3.00
2022-09-26T05:45:23.154Z,3.10
2022-09-26T05:50:26.802Z,3.07
2022-09-26T05:55:29.583Z,3.60
2022-09-26T06:00:31.429Z,3.30
2022-09-26T06:05:34.666Z,3.43
2022-09-26T06:10:36.831Z,3.30
2022-09-26T06:15:39.921Z,3.20
2022-09-26T06:20:43.048Z,4.17
2022-09-26T06:25:44.780Z,3.57
2022-09-26T06:30:46.412Z,3.23
2022-09-26T06:35:59.478Z,3.67
2022-09-26T06:41:01.507Z,3.63
2022-09-26T06:46:06.104Z,3.13
2022-09-26T06:51:09.927Z,3.03
2022-09-26T06:56:11.819Z,3.13
2022-09-26T07:01:13.797Z,3.33
2022-09-26T07:06:17.279Z,3.57
2022-09-26T07:16:40.999Z,2.77
2022-09-26T07:21:44.324Z,2.80
2022-09-26T07:26:46.424Z,2.87
2022-09-26T07:31:48.189Z,3.37
2022-09-26T07:36:51.543Z,2.90
2022-09-26T07:41:53.521Z,2.83
2022-09-26T07:46:55.549Z,3.33
2022-09-26T07:51:58.558Z,2.40
2022-09-26T07:57:00.411Z,2.40
2022-09-26T08:02:02.298Z,3.07
2022-09-26T08:07:05.410Z,3.03
2022-09-26T08:12:07.048Z,3.00
2022-09-26T08:17:13.489Z,2.20
2022-09-26T08:22:17.310Z,2.43
2022-09-26T08:27:19.069Z,2.00
2022-09-26T08:32:20.778Z,2.07
2022-09-26T08:37:27.587Z,1.80
2022-09-26T08:42:41.002Z,1.57
2022-09-26T08:47:47.964Z,1.90
2022-09-26T08:52:57.467Z,1.90
2022-09-26T08:58:04.356Z,1.50
2022-09-26T09:03:17.623Z,1.70
2022-09-26T09:08:23.895Z,1.17
2022-09-26T09:13:45.353Z,1.40
2022-09-26T09:18:54.063Z,1.17
2022-09-26T09:24:17.246Z,1.00
2022-09-26T09:29:39.986Z,1.30
2022-09-26T09:34:44.936Z,0.70
2022-09-26T09:39:50.091Z,0.70
2022-09-26T09:44:57.894Z,0.90
2022-09-26T09:49:59.585Z,1.05
2022-09-26T09:55:16.219Z,0.60
2022-09-26T10:00:19.963Z,0.68
2022-09-26T10:05:31.349Z,0.70
2022-09-26T10:10:41.103Z,0.50
2022-09-26T10:15:54.684Z,0.40
2022-09-26T10:20:59.539Z,0.60
2022-09-26T10:26:05.591Z,0.80
2022-09-26T10:31:10.155Z,0.60
2022-09-26T10:36:19.565Z,0.40
2022-09-26T10:41:25.229Z,0.60
2022-09-26T10:46:26.995Z,0.70
2022-09-26T10:51:32.530Z,0.60
2022-09-26T10:56:40.395Z,0.50
2022-09-26T11:01:45.960Z,0.70
2022-09-26T11:06:49.141Z,0.60
2022-09-26T11:11:53.529Z,0.60
2022-09-26T11:16:56.264Z,0.70
2022-09-26T11:22:07.980Z,0.80
2022-09-26T11:32:43.937Z,0.87
2022-09-26T11:38:05.062Z,0.90
2022-09-26T11:43:23.976Z,0.80
2022-09-26T11:48:47.490Z,0.90
2022-09-26T11:54:17.451Z,0.90
2022-09-26T11:59:36.351Z,1.00
2022-09-26T12:05:11.548Z,0.97
2022-09-26T12:10:31.575Z,0.87
2022-09-26T12:15:40.042Z,0.70
2022-09-26T12:21:04.972Z,0.90
2022-09-26T12:26:16.273Z,0.70
2022-09-26T12:31:32.489Z,0.80
2022-09-26T12:36:49.184Z,0.90
2022-09-26T12:42:09.749Z,0.70
2022-09-26T12:47:24.411Z,0.80
2022-09-26T12:52:42.419Z,0.87
2022-09-26T12:57:59.924Z,0.70
2022-09-26T13:03:33.539Z,0.87
2022-09-26T13:08:48.254Z,0.70
2022-09-26T13:14:17.030Z,1.73
2022-09-26T13:19:27.516Z,0.87
2022-09-26T13:24:38.229Z,0.70
2022-09-26T13:29:43.539Z,0.90
2022-09-26T13:34:51.729Z,0.70
2022-09-26T13:39:59.243Z,0.80
2022-09-26T13:45:16.463Z,0.80
2022-09-26T13:50:25.838Z,1.00
2022-09-26T13:55:27.849Z,0.77
2022-09-26T14:00:43.994Z,0.60
2022-09-26T14:05:49.052Z,0.60
2022-09-26T14:10:53.857Z,0.60
2022-09-26T14:16:02.206Z,0.40
2022-09-26T14:21:17.043Z,0.80
2022-09-26T14:26:20.178Z,0.70
2022-09-26T14:31:56.923Z,0.80
2022-09-26T14:37:23.646Z,0.40
2022-09-26T14:42:40.449Z,0.60
2022-09-26T14:47:45.010Z,0.70
2022-09-26T14:52:53.035Z,0.60
2022-09-26T14:58:16.357Z,0.60
2022-09-26T15:03:20.766Z,0.50
2022-09-26T15:08:26.879Z,0.57
2022-09-26T15:13:35.733Z,0.50
2022-09-26T15:18:41.052Z,0.60
2022-09-26T15:23:49.381Z,0.80
2022-09-26T15:28:53.369Z,0.60
2022-09-26T15:34:00.818Z,0.60
2022-09-26T15:39:24.212Z,0.80
2022-09-26T15:44:26.038Z,0.53
2022-09-26T15:49:28.034Z,0.77
2022-09-26T15:54:32.331Z,0.90
2022-09-26T15:59:41.182Z,0.70
2022-09-26T16:04:43.334Z,0.80
2022-09-26T16:09:49.263Z,0.90
2022-09-26T16:14:54.765Z,1.27
2022-09-26T16:20:02.325Z,1.27
2022-09-26T16:25:35.266Z,1.20
2022-09-26T16:30:42.347Z,0.63
2022-09-26T16:35:46.352Z,1.10
2022-09-26T16:40:52.382Z,1.10
2022-09-26T16:46:04.499Z,1.30
2022-09-26T16:51:15.206Z,2.33
2022-09-26T16:56:20.466Z,1.90
2022-09-26T17:01:23.010Z,1.20
2022-09-26T17:06:24.796Z,1.00
2022-09-26T17:11:28.481Z,0.93
2022-09-26T17:16:31.288Z,3.33
2022-09-26T17:21:33.380Z,1.40
2022-09-26T17:26:36.874Z,1.07
2022-09-26T17:31:39.459Z,1.20
2022-09-26T17:36:46.157Z,0.90
2022-09-26T17:41:49.456Z,1.10
2022-09-26T17:46:54.523Z,1.10
2022-09-26T17:51:57.296Z,1.10
2022-09-26T17:57:00.699Z,1.60
2022-09-26T18:02:11.091Z,3.30
2022-09-26T18:07:13.256Z,2.90
2022-09-26T18:12:19.719Z,2.73
2022-09-26T18:17:21.373Z,1.60
2022-09-26T18:22:29.757Z,1.17
2022-09-26T18:27:34.157Z,1.40
2022-09-26T18:32:39.158Z,1.33
2022-09-26T18:37:41.627Z,1.40
2022-09-26T18:42:45.447Z,1.73
2022-09-26T18:47:47.181Z,1.30
2022-09-26T18:52:50.084Z,0.83
2022-09-26T18:57:53.265Z,1.83
2022-09-26T19:02:55.323Z,1.23
2022-09-26T19:07:57.179Z,0.60
2022-09-26T19:13:00.271Z,1.00
2022-09-26T19:18:02.055Z,1.17
2022-09-26T19:23:04.122Z,1.00
2022-09-26T19:28:12.503Z,1.00
2022-09-26T19:33:14.437Z,1.13
2022-09-26T19:38:19.830Z,1.07
2022-09-26T19:43:22.951Z,1.00
2022-09-26T19:48:24.682Z,0.90
2022-09-26T19:53:27.248Z,1.00
2022-09-26T19:58:30.471Z,1.23
2022-09-26T20:03:34.283Z,0.93
2022-09-26T20:08:36.491Z,1.07
2022-09-26T20:13:40.331Z,0.90
2022-09-26T20:18:42.177Z,0.70
2022-09-26T20:23:46.230Z,0.90
2022-09-26T20:28:49.762Z,0.97
2022-09-26T20:33:52.733Z,1.10
2022-09-26T20:38:58.030Z,0.80
2022-09-26T20:44:06.756Z,0.93
2022-09-26T20:49:15.937Z,0.93
2022-09-26T20:54:25.384Z,1.10
2022-09-26T20:59:28.574Z,0.77
2022-09-26T21:04:32.941Z,0.90
2022-09-26T21:09:35.053Z,0.83
2022-09-26T21:14:39.529Z,0.80
2022-09-26T21:19:41.606Z,0.80
2022-09-26T21:24:43.970Z,1.07
2022-09-26T21:29:47.506Z,1.07
2022-09-26T21:34:59.025Z,1.00
2022-09-26T21:40:01.697Z,0.90
2022-09-26T21:45:09.507Z,1.17
2022-09-26T21:50:12.020Z,1.10
2022-09-26T21:55:20.380Z,1.20
2022-09-26T22:00:23.732Z,1.30
2022-09-26T22:05:25.985Z,1.00
2022-09-26T22:10:28.015Z,1.20
2022-09-26T22:15:31.452Z,1.20
2022-09-26T22:20:34.088Z,0.90
2022-09-26T22:25:39.607Z,0.80
2022-09-26T22:30:45.610Z,1.00
2022-09-26T22:35:47.759Z,0.90
2022-09-26T22:40:55.969Z,1.00
2022-09-26T22:46:02.742Z,1.00
2022-09-26T22:51:05.790Z,0.93
2022-09-26T22:56:10.191Z,1.20
2022-09-26T23:01:16.400Z,0.90
2022-09-26T23:06:19.059Z,1.20
2022-09-26T23:11:21.179Z,1.30
2022-09-26T23:16:25.642Z,0.90
2022-09-26T23:21:28.155Z,1.13
2022-09-26T23:26:31.712Z,1.20
2022-09-26T23:31:35.279Z,1.00
2022-09-26T23:36:37.307Z,1.00
2022-09-26T23:41:39.815Z,1.27
2022-09-26T23:46:42.877Z,1.00
2022-09-26T23:51:44.907Z,1.30
2022-09-26T23:56:47.017Z,1.10
